Time;durP1;ratioP1;P1;durP2;ratioP2;P2;SDS_P1;SDS_P2;PMS_P1;PMS_P2;Temp;Humidity;BMP_temperature;BMP_pressure;BME280_temperature;BME280_humidity;BME280_pressure;Samples;Min_cycle;Max_cycle;Signal;HPM_P1;HPM_P2
2022/12/13 00:00:41;;;;;;;8.32;6.50;;;;;;;21.37;32.18;101302.47;5070979;28;20047;-73
2022/12/13 00:03:07;;;;;;;8.25;6.05;;;;;;;21.38;32.27;101294.31;5070041;28;20073;-73
2022/12/13 00:05:33;;;;;;;8.85;5.93;;;;;;;21.30;32.09;101290.91;5079616;28;20040;-73
2022/12/13 00:08:01;;;;;;;9.45;6.45;;;;;;;21.25;32.65;101294.09;5078592;28;20043;-73
2022/12/13 00:10:27;;;;;;;8.13;5.97;;;;;;;21.22;32.32;101291.78;5077149;28;20431;-73
2022/12/13 00:12:52;;;;;;;8.73;5.35;;;;;;;21.18;32.61;101284.34;5082212;28;20047;-73
2022/12/13 00:15:18;;;;;;;8.25;5.70;;;;;;;21.17;32.45;101286.16;5081449;28;20056;-73
2022/12/13 00:17:44;;;;;;;6.85;5.00;;;;;;;21.13;32.54;101291.00;5071105;28;20162;-73
2022/12/13 00:20:10;;;;;;;8.10;5.65;;;;;;;21.08;32.56;101290.72;5074908;28;20036;-73
2022/12/13 00:22:36;;;;;;;8.15;5.68;;;;;;;21.05;32.72;101296.38;5068883;28;20726;-73
2022/12/13 00:25:02;;;;;;;7.05;4.90;;;;;;;21.04;32.60;101286.78;5068211;28;20127;-73
2022/12/13 00:27:28;;;;;;;7.57;5.60;;;;;;;21.04;32.79;101288.59;5072689;28;20514;-74
2022/12/13 00:29:53;;;;;;;7.95;5.82;;;;;;;20.90;32.95;101284.88;5063292;28;20040;-73
2022/12/13 00:32:19;;;;;;;8.18;6.05;;;;;;;21.00;32.88;101282.00;5071556;28;20048;-73
2022/12/13 00:34:44;;;;;;;6.93;5.20;;;;;;;21.04;32.58;101284.13;5077092;28;20668;-73
2022/12/13 00:37:10;;;;;;;8.88;5.72;;;;;;;20.99;32.96;101291.75;5077899;28;20047;-74
2022/12/13 00:39:35;;;;;;;7.03;5.18;;;;;;;20.91;32.87;101285.72;5076946;28;20055;-73
2022/12/13 00:42:01;;;;;;;8.68;5.82;;;;;;;20.92;33.11;101288.19;5080198;28;20091;-74
2022/12/13 00:44:26;;;;;;;7.70;4.85;;;;;;;20.90;32.85;101287.53;5080846;28;20040;-73
2022/12/13 00:46:52;;;;;;;8.68;5.45;;;;;;;20.77;33.28;101281.97;5077716;28;20128;-73
2022/12/13 00:49:18;;;;;;;8.30;5.47;;;;;;;20.77;32.89;101269.56;5071434;28;20054;-73
2022/12/13 00:51:44;;;;;;;7.82;5.18;;;;;;;20.81;33.04;101273.50;5067375;28;20600;-73
2022/12/13 00:54:09;;;;;;;7.50;5.28;;;;;;;20.79;33.33;101269.38;5077178;28;20125;-73
2022/12/13 00:56:36;;;;;;;6.95;5.03;;;;;;;20.73;33.11;101272.75;5074219;28;20032;-73
2022/12/13 00:59:02;;;;;;;8.82;5.25;;;;;;;20.75;33.31;101265.47;5078397;28;20655;-73
2022/12/13 01:01:30;;;;;;;7.57;5.25;;;;;;;20.68;33.42;101273.28;5076962;28;20020;-72
2022/12/13 01:03:58;;;;;;;6.30;4.70;;;;;;;20.65;33.58;101268.34;5076001;28;20456;-73
2022/12/13 01:06:33;;;;;;;6.88;4.97;;;;;;;20.67;33.21;101273.47;5077658;28;20020;-73
2022/12/13 01:08:59;;;;;;;6.03;4.63;;;;;;;20.68;33.32;101275.09;5073032;28;22259;-72
2022/12/13 01:11:24;;;;;;;7.03;5.22;;;;;;;20.66;33.37;101274.47;5072210;28;20048;-73
2022/12/13 01:13:50;;;;;;;6.53;4.78;;;;;;;20.54;33.57;101274.00;5079436;28;20051;-73
2022/12/13 01:16:17;;;;;;;6.95;5.20;;;;;;;20.55;33.52;101272.19;5078220;28;20048;-73
2022/12/13 01:18:43;;;;;;;7.38;5.00;;;;;;;20.63;33.34;101274.78;5079015;28;20458;-73
2022/12/13 01:21:12;;;;;;;6.57;4.45;;;;;;;20.63;33.20;101275.59;5077497;28;20763;-73
2022/12/13 01:23:39;;;;;;;7.75;5.05;;;;;;;20.59;33.78;101276.13;5078064;28;20131;-74
2022/12/13 01:26:06;;;;;;;8.00;5.47;;;;;;;20.61;33.43;101267.00;5077733;28;20028;-73
2022/12/13 01:28:32;;;;;;;7.05;5.30;;;;;;;20.59;33.38;101278.78;5074251;28;20119;-73
2022/12/13 01:31:00;;;;;;;7.18;5.45;;;;;;;20.49;33.53;101276.38;5081742;28;20043;-73
2022/12/13 01:33:26;;;;;;;7.28;5.50;;;;;;;20.53;33.62;101282.94;5084646;28;20036;-73
2022/12/13 01:35:52;;;;;;;6.65;5.43;;;;;;;20.50;33.42;101276.19;5081537;28;20472;-74
2022/12/13 01:38:19;;;;;;;8.25;4.78;;;;;;;20.47;33.61;101273.91;5080175;28;20582;-75
2022/12/13 01:40:46;;;;;;;7.50;4.53;;;;;;;20.44;33.64;101276.84;5079564;28;20123;-73
2022/12/13 01:43:14;;;;;;;7.10;4.97;;;;;;;20.43;33.67;101277.84;5077715;28;20131;-73
2022/12/13 01:45:39;;;;;;;7.63;5.25;;;;;;;20.39;33.81;101279.19;5081325;28;20032;-73
2022/12/13 01:48:13;;;;;;;6.80;5.00;;;;;;;20.38;33.88;101280.16;5081020;28;20512;-73
2022/12/13 01:50:45;;;;;;;7.60;4.68;;;;;;;20.43;33.53;101282.31;5076179;28;20101;-74
2022/12/13 01:53:17;;;;;;;7.57;5.18;;;;;;;20.45;33.58;101273.22;5077392;28;20181;-73
2022/12/13 01:55:46;;;;;;;7.55;5.03;;;;;;;20.32;33.83;101290.63;5077504;28;20047;-73
2022/12/13 01:58:13;;;;;;;6.53;5.03;;;;;;;20.38;33.62;101292.56;5076460;28;20036;-73
2022/12/13 02:00:40;;;;;;;7.97;5.80;;;;;;;20.43;33.72;101291.09;5078518;28;20047;-74
2022/12/13 02:03:06;;;;;;;7.30;4.88;;;;;;;20.33;33.90;101289.63;5080818;28;20043;-73
2022/12/13 02:05:58;;;;;;;5.88;4.82;;;;;;;20.38;33.63;101282.00;5075444;28;20056;-73
2022/12/13 02:08:24;;;;;;;6.95;4.93;;;;;;;20.35;33.79;101279.69;5083606;28;20076;-72
2022/12/13 02:10:50;;;;;;;6.22;4.60;;;;;;;20.32;33.64;101290.63;5073936;28;20436;-73
2022/12/13 02:13:15;;;;;;;6.55;4.75;;;;;;;20.38;33.69;101282.00;5075187;28;20059;-73
2022/12/13 02:16:29;;;;;;;6.40;4.78;;;;;;;20.35;33.79;101285.81;5078118;28;20063;-72
2022/12/13 02:19:03;;;;;;;7.68;5.00;;;;;;;20.30;33.73;101279.41;5047179;28;20152;-73
2022/12/13 02:21:48;;;;;;;9.52;4.47;;;;;;;20.29;33.70;101273.28;5074504;28;20591;-72
2022/12/13 02:24:39;;;;;;;7.32;5.28;;;;;;;20.29;33.75;101270.63;5074149;28;20035;-73
2022/12/13 02:27:10;;;;;;;7.63;5.43;;;;;;;20.23;33.97;101271.31;5077380;28;20761;-72
2022/12/13 02:30:10;;;;;;;6.45;4.97;;;;;;;20.31;33.80;101275.75;5078208;28;20040;-73
2022/12/13 02:32:56;;;;;;;6.95;4.97;;;;;;;20.19;33.84;101268.19;5077966;28;20040;-72
2022/12/13 02:35:26;;;;;;;7.10;5.13;;;;;;;20.26;33.90;101270.97;5078804;28;20066;-73
2022/12/13 02:38:04;;;;;;;8.63;5.30;;;;;;;20.27;33.85;101264.66;5081692;28;20114;-72
2022/12/13 02:40:42;;;;;;;6.93;5.63;;;;;;;20.23;33.79;101255.44;5076184;28;20056;-72
2022/12/13 02:43:17;;;;;;;7.03;5.05;;;;;;;20.30;33.62;101253.78;5078715;28;20046;-73
2022/12/13 02:45:50;;;;;;;7.28;4.45;;;;;;;20.19;33.72;101251.50;5075405;28;20118;-72
2022/12/13 02:48:24;;;;;;;7.65;4.75;;;;;;;20.23;33.83;101255.44;5079061;28;20043;-73
2022/12/13 02:50:51;;;;;;;7.00;4.72;;;;;;;20.25;33.81;101253.44;5078931;28;20040;-74
2022/12/13 02:53:20;;;;;;;6.93;4.80;;;;;;;20.25;33.65;101244.69;5076203;28;20028;-72
2022/12/13 02:55:46;;;;;;;7.25;4.50;;;;;;;20.22;33.83;101243.22;5077763;28;20071;-72
2022/12/13 02:58:27;;;;;;;7.20;5.20;;;;;;;20.18;33.92;101241.91;5076683;28;20474;-73
2022/12/13 03:01:24;;;;;;;6.93;4.75;;;;;;;20.09;34.06;101235.00;5073527;28;20051;-72
2022/12/13 03:04:09;;;;;;;7.68;5.57;;;;;;;20.13;34.01;101242.44;5057300;28;20056;-71
2022/12/13 03:06:59;;;;;;;7.85;5.32;;;;;;;20.19;33.71;101241.75;5076363;28;20047;-74
2022/12/13 03:09:38;;;;;;;8.38;5.10;;;;;;;20.12;33.89;101237.31;5078942;28;20047;-72
2022/12/13 03:15:28;;;;;;;8.30;5.15;;;;;;;20.07;34.03;101245.75;5081449;28;20700;-72
2022/12/13 03:18:05;;;;;;;7.32;4.60;;;;;;;20.10;33.96;101247.22;5076899;28;20043;-72
2022/12/13 03:20:31;;;;;;;7.40;5.03;;;;;;;20.03;34.09;101239.16;5076492;28;20027;-73
2022/12/13 03:22:58;;;;;;;5.85;4.30;;;;;;;20.06;34.15;101238.81;5076415;28;20093;-72
2022/12/13 03:25:26;;;;;;;6.80;4.40;;;;;;;20.14;33.96;101243.25;5078668;28;20043;-72
2022/12/13 03:27:53;;;;;;;;;;;;;;;20.10;34.04;101247.22;5071921;28;20550;-72
2022/12/13 03:30:19;;;;;;;6.80;5.07;;;;;;;20.13;33.86;101249.56;5076394;28;19981;-72
2022/12/13 03:32:44;;;;;;;6.90;5.03;;;;;;;20.09;33.91;101250.88;5074815;28;20540;-72
2022/12/13 03:35:10;;;;;;;5.93;4.90;;;;;;;20.09;33.95;101253.50;5078838;28;20058;-72
2022/12/13 03:37:35;;;;;;;6.93;4.80;;;;;;;20.02;34.10;101257.84;5075238;28;20063;-72
2022/12/13 03:40:01;;;;;;;7.38;4.65;;;;;;;20.06;33.95;101252.03;5075086;28;20040;-72
2022/12/13 03:42:27;;;;;;;8.43;5.05;;;;;;;19.90;34.05;101242.34;5082265;28;20040;-72
2022/12/13 03:44:52;;;;;;;5.45;4.38;;;;;;;20.04;34.06;101251.38;5078945;28;20595;-72
2022/12/13 03:47:18;;;;;;;6.68;4.40;;;;;;;20.03;34.16;101255.03;5072871;28;20040;-72
2022/12/13 03:49:43;;;;;;;4.88;4.13;;;;;;;20.00;34.13;101243.97;5076996;28;20872;-73
2022/12/13 03:52:09;;;;;;;5.55;4.25;;;;;;;19.94;34.17;101244.66;5081518;28;20383;-72
2022/12/13 03:54:34;;;;;;;7.47;4.65;;;;;;;20.04;34.09;101242.63;5081098;28;20040;-72
2022/12/13 03:57:00;;;;;;;6.95;4.40;;;;;;;19.97;34.04;101234.56;5075470;28;20066;-73
2022/12/13 03:59:26;;;;;;;7.05;5.07;;;;;;;19.96;34.14;101240.03;5069604;28;20044;-72
2022/12/13 04:01:52;;;;;;;7.25;4.70;;;;;;;19.99;34.05;101232.56;5073791;28;20043;-73
2022/12/13 04:04:17;;;;;;;7.00;5.47;;;;;;;19.92;34.14;101236.88;5076348;28;20100;-72
2022/12/13 04:06:43;;;;;;;6.75;4.47;;;;;;;20.02;34.01;101234.03;5075912;28;20028;-73
2022/12/13 04:09:08;;;;;;;5.78;4.68;;;;;;;19.99;34.08;101234.41;5080359;28;20055;-73
2022/12/13 04:14:18;;;;;;;5.97;4.60;;;;;;;19.92;34.10;101234.22;5077637;28;20044;-73
2022/12/13 04:16:47;;;;;;;5.63;4.57;;;;;;;19.98;33.97;101230.09;5075481;28;20117;-72
2022/12/13 04:19:12;;;;;;;7.20;4.82;;;;;;;19.90;34.13;101230.94;5073819;28;20047;-72
2022/12/13 04:21:38;;;;;;;6.53;4.63;;;;;;;19.95;34.12;101227.81;5072609;28;20032;-73
2022/12/13 04:24:03;;;;;;;7.68;4.68;;;;;;;19.90;34.13;101228.28;5076966;28;20035;-72
2022/12/13 04:26:29;;;;;;;6.03;4.25;;;;;;;19.92;34.10;101218.38;5071903;28;21081;-73
2022/12/13 04:28:55;;;;;;;6.72;4.20;;;;;;;19.87;34.13;101215.44;5076918;28;20036;-72
2022/12/13 04:31:20;;;;;;;6.65;4.60;;;;;;;19.89;34.17;101213.44;5077474;28;20096;-73
2022/12/13 04:33:46;;;;;;;5.47;4.20;;;;;;;19.92;34.00;101210.44;5076170;28;20394;-72
2022/12/13 04:36:18;;;;;;;5.10;4.30;;;;;;;19.91;34.18;101214.09;5077074;28;20878;-72
2022/12/13 04:38:45;;;;;;;6.30;4.75;;;;;;;19.79;34.24;101213.66;5071700;28;20534;-72
2022/12/13 04:41:15;;;;;;;6.32;4.15;;;;;;;19.93;33.93;101214.75;5078570;28;20047;-72
2022/12/13 04:43:40;;;;;;;8.52;5.63;;;;;;;19.76;34.41;101206.06;5079617;28;20151;-72
2022/12/13 04:46:06;;;;;;;6.38;4.75;;;;;;;19.78;34.25;101212.00;5078221;28;20043;-73
2022/12/13 04:48:33;;;;;;;6.45;4.63;;;;;;;19.77;34.26;101201.59;5071234;28;20038;-73
2022/12/13 04:50:59;;;;;;;6.28;4.45;;;;;;;19.80;34.18;101207.38;5078307;28;20035;-73
2022/12/13 04:53:25;;;;;;;5.50;4.38;;;;;;;19.75;34.52;101204.41;5078795;28;20049;-73
2022/12/13 04:55:51;;;;;;;6.30;4.40;;;;;;;19.81;34.23;101213.47;5074825;28;20149;-72
2022/12/13 04:58:17;;;;;;;6.43;4.45;;;;;;;19.75;34.16;101198.28;5069934;28;20024;-73
2022/12/13 05:00:42;;;;;;;6.43;4.57;;;;;;;19.76;34.15;101197.31;5075867;28;20089;-73
2022/12/13 05:03:08;;;;;;;5.72;4.25;;;;;;;19.76;34.27;101206.06;5078194;28;20043;-73
2022/12/13 05:05:33;;;;;;;6.60;4.28;;;;;;;19.73;34.13;101189.69;5079008;28;20244;-72
2022/12/13 05:07:59;;;;;;;6.63;4.78;;;;;;;19.74;34.22;101200.09;5078588;28;20055;-72
2022/12/13 05:10:24;;;;;;;5.47;4.45;;;;;;;19.85;34.00;101197.09;5080462;28;20044;-73
2022/12/13 05:12:50;;;;;;;6.80;4.82;;;;;;;19.79;34.20;101195.16;5075972;28;20051;-72
2022/12/13 05:15:15;;;;;;;5.82;4.22;;;;;;;19.83;34.10;101195.63;5082424;28;20060;-72
2022/12/13 05:17:41;;;;;;;5.95;4.30;;;;;;;19.75;34.24;101196.50;5079043;28;20060;-72
2022/12/13 05:20:07;;;;;;;6.53;4.00;;;;;;;19.80;34.11;101195.97;5084184;28;20882;-72
2022/12/13 05:22:32;;;;;;;7.10;4.65;;;;;;;20.06;33.54;101191.22;5081671;28;20052;-72
2022/12/13 05:24:58;;;;;;;6.03;4.35;;;;;;;20.20;33.41;101187.03;5076406;28;20402;-72
2022/12/13 05:27:24;;;;;;;6.00;4.50;;;;;;;20.31;33.27;101181.38;5077134;28;20085;-73
2022/12/13 05:29:49;;;;;;;5.85;4.30;;;;;;;20.31;33.17;101184.00;5086242;28;20116;-75
2022/12/13 05:32:15;;;;;;;7.05;4.28;;;;;;;20.31;33.25;101185.84;5086230;28;20031;-72
2022/12/13 05:34:40;;;;;;;5.97;4.22;;;;;;;20.29;33.15;101187.81;5084387;28;20039;-72
2022/12/13 05:37:06;;;;;;;5.35;4.35;;;;;;;20.24;33.33;101185.69;5084604;28;20492;-72
2022/12/13 05:39:31;;;;;;;7.68;4.82;;;;;;;20.21;33.36;101188.69;5084649;28;20040;-73
2022/12/13 05:41:58;;;;;;;7.15;5.22;;;;;;;20.19;33.41;101195.97;5079937;28;20044;-73
2022/12/13 05:44:24;;;;;;;6.95;4.20;;;;;;;20.14;33.52;101185.09;5079312;28;20083;-72
2022/12/13 05:46:49;;;;;;;7.07;4.65;;;;;;;20.14;33.36;101175.34;5081185;28;20032;-72
2022/12/13 05:49:15;;;;;;;6.20;4.43;;;;;;;20.17;33.40;101177.63;5079168;28;20032;-73
2022/12/13 05:51:41;;;;;;;6.50;4.68;;;;;;;20.09;33.58;101171.56;5080299;28;20077;-73
2022/12/13 05:54:06;;;;;;;7.30;4.28;;;;;;;20.12;33.49;101174.69;5078778;28;20039;-72
2022/12/13 05:56:31;;;;;;;5.97;4.22;;;;;;;20.14;33.61;101180.63;5079182;28;20047;-73
2022/12/13 05:58:57;;;;;;;5.18;4.15;;;;;;;20.12;33.41;101179.97;5071174;28;20044;-72
2022/12/13 06:01:22;;;;;;;5.78;3.85;;;;;;;20.04;33.62;101179.19;5076581;28;20040;-72
2022/12/13 06:03:48;;;;;;;6.68;4.45;;;;;;;20.02;33.71;101186.47;5080153;28;20040;-73
2022/12/13 06:06:16;;;;;;;6.82;4.57;;;;;;;20.01;33.73;101183.00;5078802;28;20112;-72
2022/12/13 06:08:41;;;;;;;6.45;4.68;;;;;;;19.99;33.62;101189.47;5079576;28;20058;-72
2022/12/13 06:11:07;;;;;;;6.43;5.07;;;;;;;19.98;33.72;101188.63;5080128;28;20032;-72
2022/12/13 06:13:32;;;;;;;5.82;4.40;;;;;;;20.02;33.61;101189.94;5078747;28;20100;-72
2022/12/13 06:16:03;;;;;;;6.05;4.15;;;;;;;19.95;33.56;101186.34;5076749;28;20041;-73
2022/12/13 06:18:34;;;;;;;7.55;4.60;;;;;;;19.96;33.66;101195.09;5081030;28;20046;-73
2022/12/13 06:21:02;;;;;;;5.65;4.28;;;;;;;19.97;33.64;101194.09;5077045;28;20685;-72
2022/12/13 06:23:29;;;;;;;5.82;3.88;;;;;;;19.91;33.68;101199.06;5079852;28;20031;-73
2022/12/13 06:25:55;;;;;;;6.10;4.18;;;;;;;19.93;33.67;101193.63;5073872;28;20036;-72
2022/12/13 06:28:21;;;;;;;6.07;4.40;;;;;;;19.92;33.63;101190.13;5080664;28;20039;-72
2022/12/13 06:30:51;;;;;;;5.53;4.45;;;;;;;19.85;33.58;101191.00;5078370;28;20028;-72
2022/12/13 06:33:18;;;;;;;6.03;4.53;;;;;;;19.86;33.70;101190.81;5078883;28;20467;-72
2022/12/13 06:35:43;;;;;;;5.90;4.80;;;;;;;19.99;33.55;101192.94;5062429;28;20129;-72
2022/12/13 06:38:09;;;;;;;6.13;4.35;;;;;;;20.12;33.28;101187.91;5077178;28;20073;-72
2022/12/13 06:40:35;;;;;;;6.28;4.60;;;;;;;20.71;32.71;101198.00;5081312;28;20591;-73
2022/12/13 06:43:00;;;;;;;5.53;4.38;;;;;;;21.38;31.69;101196.31;5077882;28;20110;-72
2022/12/13 06:45:26;;;;;;;5.50;4.10;;;;;;;22.05;30.82;101198.03;5080821;28;20275;-72
2022/12/13 06:47:56;;;;;;;5.95;4.45;;;;;;;22.45;30.04;101198.53;5081043;28;20139;-72
2022/12/13 06:50:21;;;;;;;5.78;4.15;;;;;;;22.52;30.19;101202.06;5079307;28;20038;-73
2022/12/13 06:52:47;;;;;;;5.78;4.25;;;;;;;22.36;30.42;101196.97;5079256;28;20031;-72
2022/12/13 06:55:16;;;;;;;5.47;3.92;;;;;;;22.16;30.36;101184.31;5081214;28;20055;-72
2022/12/13 06:57:42;;;;;;;5.53;3.97;;;;;;;22.01;31.15;101191.44;5080190;28;20039;-72
2022/12/13 07:00:08;;;;;;;5.45;3.58;;;;;;;21.78;31.09;101194.22;5077559;28;20101;-72
2022/12/13 07:02:34;;;;;;;6.03;4.20;;;;;;;21.60;31.67;101191.09;5076295;28;20035;-72
2022/12/13 07:05:00;;;;;;;6.20;4.00;;;;;;;21.46;31.91;101190.09;5075443;28;20039;-73
2022/12/13 07:07:25;;;;;;;8.63;4.05;;;;;;;21.37;32.20;101188.53;5079005;28;20690;-72
2022/12/13 07:09:52;;;;;;;5.43;4.00;;;;;;;21.29;32.03;101189.44;5076614;28;20085;-72
2022/12/13 07:12:19;;;;;;;5.30;4.10;;;;;;;21.18;32.32;101184.53;5076851;28;20044;-73
2022/12/13 07:14:45;;;;;;;8.38;4.40;;;;;;;21.22;32.22;101188.47;5078454;28;20417;-73
2022/12/13 07:17:10;;;;;;;7.22;4.57;;;;;;;21.11;32.44;101191.56;5080262;28;20044;-73
2022/12/13 07:19:36;;;;;;;6.93;4.07;;;;;;;21.06;32.46;101191.28;5079451;28;20032;-72
2022/12/13 07:22:05;;;;;;;6.75;5.10;;;;;;;20.98;32.64;101183.38;5078202;28;20054;-72
2022/12/13 07:24:30;;;;;;;5.15;4.03;;;;;;;20.92;32.79;101184.94;5070205;28;20028;-73
2022/12/13 07:26:56;;;;;;;5.68;4.40;;;;;;;20.93;32.74;101188.41;5074699;28;20067;-72
2022/12/13 07:29:21;;;;;;;6.05;4.63;;;;;;;21.25;32.07;101189.97;5079937;28;20070;-71
2022/12/13 07:31:47;;;;;;;6.72;4.50;;;;;;;21.63;31.43;101191.56;5078180;28;20202;-71
2022/12/13 07:34:12;;;;;;;5.82;4.40;;;;;;;21.49;31.75;101189.72;5071278;28;20032;-71
2022/12/13 07:36:38;;;;;;;5.57;4.18;;;;;;;21.41;32.16;101195.13;5072217;28;20047;-71
2022/12/13 07:39:03;;;;;;;5.47;4.50;;;;;;;21.31;31.68;101192.72;5075713;28;20031;-71
2022/12/13 07:41:29;;;;;;;4.45;3.85;;;;;;;21.27;32.35;101199.38;5075521;28;20524;-71
2022/12/13 07:43:55;;;;;;;6.65;4.50;;;;;;;21.22;32.25;101185.84;5072426;28;20042;-71
2022/12/13 07:46:20;;;;;;;5.00;3.88;;;;;;;21.24;32.36;101190.94;5077121;28;20043;-71
2022/12/13 07:48:46;;;;;;;5.72;4.22;;;;;;;21.19;32.17;101201.28;5077634;28;20035;-72
2022/12/13 07:51:12;;;;;;;5.05;3.90;;;;;;;21.10;32.45;101198.69;5078794;28;20063;-70
2022/12/13 07:53:39;;;;;;;7.93;4.97;;;;;;;20.93;32.37;101207.75;5072012;28;20047;-70
2022/12/13 07:56:07;;;;;;;6.95;4.47;;;;;;;20.93;32.60;101210.41;5070123;28;20092;-71
2022/12/13 07:58:33;;;;;;;6.90;4.47;;;;;;;20.92;32.81;101205.28;5063888;28;20075;-71
2022/12/13 08:01:01;;;;;;;5.50;4.07;;;;;;;21.11;32.49;101210.09;5053642;28;20707;-71
2022/12/13 08:03:28;;;;;;;7.82;4.30;;;;;;;21.37;32.04;101212.38;5068606;28;20043;-72
2022/12/13 08:06:11;;;;;;;9.25;4.20;;;;;;;21.96;31.40;101221.16;5067311;28;20064;-71
2022/12/13 08:08:37;;;;;;;5.60;4.35;;;;;;;22.33;30.56;101216.75;5067791;28;20067;-71
2022/12/13 08:11:08;;;;;;;5.75;4.07;;;;;;;22.47;30.51;101215.91;5070084;28;20105;-71
2022/12/13 08:13:34;;;;;;;7.07;4.20;;;;;;;22.38;30.92;101218.84;5066090;28;20090;-70
2022/12/13 08:16:01;;;;;;;5.65;3.97;;;;;;;22.24;30.95;101221.31;5067681;28;20040;-71
2022/12/13 08:18:28;;;;;;;6.60;4.70;;;;;;;22.06;31.09;101210.28;5071900;28;20043;-71
2022/12/13 08:20:58;;;;;;;5.43;3.90;;;;;;;21.90;31.37;101213.97;5074113;28;20066;-71
2022/12/13 08:23:23;;;;;;;5.97;4.38;;;;;;;21.79;31.81;101216.25;5072083;28;20037;-71
2022/12/13 08:25:51;;;;;;;6.40;4.68;;;;;;;21.69;31.85;101216.50;5071711;28;20040;-70
2022/12/13 08:28:17;;;;;;;8.43;4.57;;;;;;;21.59;31.85;101211.50;5070807;28;20040;-71
2022/12/13 08:30:42;;;;;;;7.78;4.90;;;;;;;21.48;31.79;101213.75;5070802;28;20090;-69
2022/12/13 08:33:08;;;;;;;6.22;4.43;;;;;;;21.50;31.87;101215.22;5071763;28;20047;-69
2022/12/13 08:35:33;;;;;;;8.20;5.25;;;;;;;21.51;31.82;101223.97;5073241;28;20028;-69
2022/12/13 08:37:59;;;;;;;6.75;4.55;;;;;;;21.47;32.26;101233.31;5074387;28;20067;-69
2022/12/13 08:40:24;;;;;;;8.23;5.07;;;;;;;21.41;32.15;101232.22;5070731;28;20040;-70
2022/12/13 08:42:53;;;;;;;7.63;4.93;;;;;;;21.35;32.38;101236.38;5079682;28;20078;-70
2022/12/13 08:45:18;;;;;;;8.00;5.10;;;;;;;21.30;32.54;101230.81;5071601;28;20157;-69
2022/12/13 08:47:44;;;;;;;9.52;5.47;;;;;;;21.26;32.58;101239.28;5072522;28;20726;-70
2022/12/13 08:50:09;;;;;;;7.15;5.00;;;;;;;21.21;32.62;101241.63;5076829;28;20036;-69
2022/12/13 08:52:35;;;;;;;7.47;5.18;;;;;;;21.15;32.62;101242.31;5075300;28;20131;-68
2022/12/13 08:55:00;;;;;;;8.00;5.50;;;;;;;21.09;32.96;101238.56;5068439;28;20063;-69
2022/12/13 08:57:26;;;;;;;7.05;4.97;;;;;;;21.09;32.71;101238.56;5071656;28;20090;-70
2022/12/13 08:59:53;;;;;;;7.40;4.88;;;;;;;21.02;32.80;101245.59;5074591;28;20051;-69
2022/12/13 09:02:18;;;;;;;6.03;4.60;;;;;;;20.97;32.81;101250.56;5073680;28;20444;-69
2022/12/13 09:04:44;;;;;;;6.88;4.95;;;;;;;20.96;32.82;101257.69;5073667;28;20055;-69
2022/12/13 09:07:10;;;;;;;6.55;4.95;;;;;;;20.93;32.86;101263.34;5073537;28;20116;-69
2022/12/13 09:09:35;;;;;;;6.70;4.82;;;;;;;20.93;32.76;101263.34;5072700;28;20036;-70
2022/12/13 09:12:01;;;;;;;7.10;4.82;;;;;;;20.93;32.86;101266.00;5068606;28;20566;-69
2022/12/13 09:14:27;;;;;;;7.93;4.97;;;;;;;21.18;32.62;101257.84;5076561;28;20044;-69
2022/12/13 09:16:52;;;;;;;7.35;4.93;;;;;;;21.87;31.50;101253.25;5071827;28;20044;-71
2022/12/13 09:19:18;;;;;;;6.78;4.60;;;;;;;22.51;30.51;101264.94;5075448;28;20036;-70
2022/12/13 09:21:43;;;;;;;6.82;4.65;;;;;;;22.76;30.15;101262.75;5071744;28;20088;-71
2022/12/13 09:24:09;;;;;;;6.85;4.63;;;;;;;22.74;30.37;101266.59;5074502;28;20052;-71
2022/12/13 09:26:34;;;;;;;7.55;5.32;;;;;;;22.64;30.14;101264.25;5075823;28;20043;-69
2022/12/13 09:29:01;;;;;;;7.57;5.13;;;;;;;22.45;30.66;101267.50;5075994;28;20044;-71
2022/12/13 09:31:26;;;;;;;7.63;5.20;;;;;;;22.30;30.95;101264.88;5074290;28;20067;-71
2022/12/13 09:33:52;;;;;;;7.30;5.30;;;;;;;22.16;31.24;101266.53;5081121;28;20039;-71
2022/12/13 09:36:19;;;;;;;8.90;5.43;;;;;;;22.01;31.54;101263.03;5071544;28;20470;-71
2022/12/13 09:38:45;;;;;;;6.28;4.85;;;;;;;21.90;31.38;101264.34;5075596;28;20040;-71
2022/12/13 09:41:33;;;;;;;7.70;5.15;;;;;;;21.80;31.79;101261.13;5072950;28;20052;-70
2022/12/13 09:44:06;;;;;;;8.02;5.25;;;;;;;21.69;31.91;101257.06;5071966;28;20042;-72
2022/12/13 09:46:35;;;;;;;7.00;4.85;;;;;;;21.69;31.95;101253.59;5075273;28;20655;-71
2022/12/13 09:49:05;;;;;;;7.60;5.32;;;;;;;21.70;31.50;101252.59;5075629;28;20040;-71
2022/12/13 09:51:32;;;;;;;;;;;;;;;21.59;31.77;101250.41;5070550;28;20086;-72
2022/12/13 09:53:59;;;;;;;7.78;5.47;;;;;;;21.56;32.13;101246.31;5071000;28;19923;-72
2022/12/13 09:56:25;;;;;;;7.85;5.35;;;;;;;21.47;32.24;101244.72;5071840;28;20048;-71
2022/12/13 09:58:52;;;;;;;8.77;5.80;;;;;;;21.45;31.96;101244.09;5077191;28;20040;-71
2022/12/13 10:01:18;;;;;;;7.72;5.40;;;;;;;21.42;31.94;101247.09;5069059;28;20551;-72
2022/12/13 10:03:48;;;;;;;6.78;5.40;;;;;;;21.34;32.16;101240.03;5067147;28;20143;-72
2022/12/13 10:06:17;;;;;;;6.30;4.90;;;;;;;21.28;32.47;101238.13;5079789;28;20044;-72
2022/12/13 10:08:51;;;;;;;7.60;5.50;;;;;;;21.24;32.50;101244.78;5075371;28;20031;-72
2022/12/13 10:11:19;;;;;;;6.57;5.38;;;;;;;21.17;32.33;101230.53;5071904;28;20050;-72
2022/12/13 10:13:48;;;;;;;7.85;5.25;;;;;;;21.17;32.50;101232.38;5071847;28;20090;-72
2022/12/13 10:16:29;;;;;;;7.35;5.35;;;;;;;21.15;32.68;101226.44;5074782;28;20119;-73
2022/12/13 10:18:55;;;;;;;8.15;5.30;;;;;;;21.08;32.39;101221.88;5076031;28;20155;-72
2022/12/13 10:21:42;;;;;;;9.25;6.20;;;;;;;21.08;32.67;101213.91;5076453;28;20055;-71
2022/12/13 10:24:14;;;;;;;7.70;5.55;;;;;;;21.03;32.54;101218.94;5073287;28;20042;-72
2022/12/13 10:26:39;;;;;;;9.23;6.15;;;;;;;20.98;32.51;101217.81;5079456;28;20047;-72
2022/12/13 10:29:07;;;;;;;7.80;5.45;;;;;;;21.05;32.48;101216.09;5075840;28;20031;-71
2022/12/13 10:31:44;;;;;;;9.43;5.53;;;;;;;21.34;32.23;101210.06;5072161;28;20040;-70
2022/12/13 10:34:25;;;;;;;8.00;5.43;;;;;;;21.83;31.50;101201.59;5078633;28;20039;-71
2022/12/13 10:36:51;;;;;;;6.90;5.20;;;;;;;22.06;31.17;101209.47;5078598;28;20047;-71
2022/12/13 10:39:41;;;;;;;7.57;5.80;;;;;;;22.04;31.04;101204.31;5074358;28;20399;-70
2022/12/13 10:42:15;;;;;;;7.35;5.68;;;;;;;21.92;31.16;101197.88;5074454;28;20702;-70
2022/12/13 10:44:41;;;;;;;8.25;5.53;;;;;;;21.78;31.54;101188.91;5076030;28;20035;-70
2022/12/13 10:47:23;;;;;;;9.00;5.57;;;;;;;21.70;31.51;101192.47;5083199;28;20964;-70
2022/12/13 10:49:50;;;;;;;7.90;5.70;;;;;;;21.65;31.39;101186.91;5080974;28;20467;-70
2022/12/13 10:52:40;;;;;;;7.57;5.68;;;;;;;21.62;31.83;101186.44;5074709;28;20040;-70
2022/12/13 10:55:25;;;;;;;9.25;5.93;;;;;;;21.56;31.85;101179.22;5074060;28;20036;-70
2022/12/13 10:57:53;;;;;;;8.98;6.13;;;;;;;21.53;31.95;101177.75;5073139;28;20543;-70
2022/12/13 11:00:50;;;;;;;7.70;5.80;;;;;;;21.49;31.97;101186.25;5076348;28;20044;-70
2022/12/13 11:03:31;;;;;;;8.23;5.88;;;;;;;21.42;32.25;101181.69;5035895;28;20822;-70
2022/12/13 11:06:12;;;;;;;7.95;5.53;;;;;;;21.37;32.22;101181.41;5072948;28;20040;-70
2022/12/13 11:08:38;;;;;;;8.43;6.07;;;;;;;21.31;32.05;101173.34;5071581;28;20032;-70
2022/12/13 11:11:06;;;;;;;7.28;5.55;;;;;;;21.28;32.08;101177.19;5073690;28;20540;-72
2022/12/13 11:13:40;;;;;;;8.35;6.00;;;;;;;21.22;32.50;101171.78;5076293;28;20044;-72
2022/12/13 11:16:39;;;;;;;8.13;5.25;;;;;;;21.17;32.30;101168.81;5070044;28;20048;-71
2022/12/13 11:19:15;;;;;;;8.90;6.23;;;;;;;21.11;32.52;101160.59;5065987;28;20044;-72
2022/12/13 11:21:46;;;;;;;8.13;5.68;;;;;;;21.08;32.41;101147.72;5078617;28;20443;-71
2022/12/13 11:24:21;;;;;;;7.13;5.22;;;;;;;21.10;32.55;101156.31;5075696;28;20111;-71
2022/12/13 11:26:55;;;;;;;9.38;5.57;;;;;;;21.02;32.63;101153.75;5072446;28;20059;-72
2022/12/13 11:29:39;;;;;;;7.40;5.35;;;;;;;21.35;31.97;101156.09;5021671;28;20135;-73
2022/12/13 11:32:40;;;;;;;8.40;5.95;;;;;;;22.52;30.37;101141.84;5021214;28;20028;-67
2022/12/13 11:35:06;;;;;;;9.88;6.20;;;;;;;22.82;29.76;101142.56;5058208;28;20043;-69
2022/12/13 11:37:40;;;;;;;9.10;6.15;;;;;;;22.74;30.31;101137.34;5067818;28;21786;-69
2022/12/13 11:40:15;;;;;;;12.15;5.93;;;;;;;22.74;30.58;101137.34;5068201;28;20610;-69